createdAt,value
2022-09-28T00:01:18.241Z,12.94
2022-09-28T00:03:49.827Z,12.94
2022-09-28T00:06:19.437Z,12.92
2022-09-28T00:08:46.451Z,12.91
2022-09-28T00:11:18.963Z,12.92
2022-09-28T00:13:48.318Z,12.93
2022-09-28T00:16:19.707Z,12.91
2022-09-28T00:18:46.697Z,12.94
2022-09-28T00:21:16.306Z,12.95
2022-09-28T00:24:01.910Z,12.97
2022-09-28T00:26:30.068Z,12.96
2022-09-28T00:28:59.190Z,12.95
2022-09-28T00:31:28.113Z,12.94
2022-09-28T00:33:56.927Z,12.93
2022-09-28T00:36:26.910Z,12.90
2022-09-28T00:38:56.411Z,12.93
2022-09-28T00:41:25.181Z,12.88
2022-09-28T00:43:52.140Z,12.81
2022-09-28T00:46:31.119Z,12.82
2022-09-28T00:49:11.191Z,12.81
2022-09-28T00:51:41.307Z,12.88
2022-09-28T00:54:09.153Z,12.89
2022-09-28T00:56:38.315Z,12.88
2022-09-28T00:59:05.343Z,12.88
2022-09-28T01:01:31.876Z,12.89
2022-09-28T01:03:59.173Z,12.85
2022-09-28T01:06:31.038Z,12.87
2022-09-28T01:09:00.660Z,12.85
2022-09-28T01:11:27.782Z,12.87
2022-09-28T01:13:57.791Z,12.84
2022-09-28T01:16:51.070Z,12.90
2022-09-28T01:19:39.563Z,12.89
2022-09-28T01:22:12.185Z,12.89
2022-09-28T01:24:38.645Z,12.90
2022-09-28T01:27:23.021Z,12.90
2022-09-28T01:30:01.662Z,12.86
2022-09-28T01:32:30.793Z,12.89
2022-09-28T01:35:04.166Z,12.88
2022-09-28T01:37:39.045Z,12.84
2022-09-28T01:40:07.663Z,12.86
2022-09-28T01:42:38.920Z,12.89
2022-09-28T01:45:18.144Z,12.84
2022-09-28T01:47:47.967Z,12.82
2022-09-28T01:50:19.515Z,12.82
2022-09-28T01:52:54.568Z,12.83
2022-09-28T01:55:45.942Z,12.86
2022-09-28T01:58:18.806Z,12.86
2022-09-28T02:00:52.041Z,12.79
2022-09-28T02:03:25.063Z,12.83
2022-09-28T02:05:57.068Z,12.78
2022-09-28T02:08:29.995Z,12.80
2022-09-28T02:11:12.499Z,12.84
2022-09-28T02:14:03.934Z,12.85
2022-09-28T02:16:41.209Z,12.86
2022-09-28T02:19:14.625Z,12.80
2022-09-28T02:21:53.947Z,12.85
2022-09-28T02:24:27.183Z,12.85
2022-09-28T02:26:59.123Z,12.82
2022-09-28T02:29:25.900Z,12.80
2022-09-28T02:31:52.715Z,12.84
2022-09-28T02:34:19.311Z,12.79
2022-09-28T02:36:46.905Z,12.80
2022-09-28T02:39:17.902Z,12.77
2022-09-28T02:42:12.387Z,12.82
2022-09-28T02:45:06.416Z,12.83
2022-09-28T02:48:00.736Z,12.82
2022-09-28T02:50:39.650Z,12.82
2022-09-28T02:53:34.003Z,12.78
2022-09-28T02:56:25.334Z,12.79
2022-09-28T02:59:07.500Z,12.73
2022-09-28T03:02:22.648Z,12.77
2022-09-28T03:05:03.247Z,12.77
2022-09-28T03:07:56.657Z,12.78
2022-09-28T03:10:48.665Z,12.78
2022-09-28T03:13:16.730Z,12.77
2022-09-28T03:15:48.531Z,12.77
2022-09-28T03:18:15.506Z,12.77
2022-09-28T03:20:42.192Z,12.75
2022-09-28T03:23:25.251Z,12.79
2022-09-28T03:25:52.398Z,12.74
2022-09-28T03:28:19.486Z,12.73
2022-09-28T03:30:46.015Z,12.78
2022-09-28T03:33:12.569Z,12.79
2022-09-28T03:35:39.110Z,12.77
2022-09-28T03:38:05.637Z,12.79
2022-09-28T03:40:32.253Z,12.79
2022-09-28T03:43:00.561Z,12.78
2022-09-28T03:45:27.093Z,12.79
2022-09-28T03:47:53.680Z,12.80
2022-09-28T03:50:20.252Z,12.80
2022-09-28T03:52:46.810Z,12.76
2022-09-28T03:55:13.587Z,12.80
2022-09-28T03:57:40.134Z,12.80
2022-09-28T04:00:07.188Z,12.80
2022-09-28T04:02:34.937Z,12.78
2022-09-28T04:05:01.895Z,12.77
2022-09-28T04:07:31.065Z,12.82
2022-09-28T04:09:58.231Z,12.79
2022-09-28T04:12:24.820Z,12.77
2022-09-28T04:14:51.419Z,12.79
2022-09-28T04:17:18.022Z,12.81
2022-09-28T04:19:44.578Z,12.84
2022-09-28T04:22:11.104Z,12.82
2022-09-28T04:24:37.831Z,12.83
2022-09-28T04:27:22.970Z,12.83
2022-09-28T04:29:49.567Z,12.86
2022-09-28T04:32:16.112Z,12.85
2022-09-28T04:34:44.272Z,12.87
2022-09-28T04:37:11.169Z,12.87
2022-09-28T04:39:37.934Z,12.87
2022-09-28T04:42:04.626Z,12.86
2022-09-28T04:44:31.304Z,12.84
2022-09-28T04:47:00.666Z,12.87
2022-09-28T04:49:30.845Z,12.89
2022-09-28T04:51:57.411Z,12.90
2022-09-28T04:54:23.977Z,12.93
2022-09-28T04:56:51.176Z,12.93
2022-09-28T04:59:17.842Z,12.95
2022-09-28T05:01:44.619Z,12.96
2022-09-28T05:04:11.159Z,12.97
2022-09-28T05:06:37.731Z,13.00
2022-09-28T05:09:04.326Z,13.00
2022-09-28T05:11:30.949Z,13.02
2022-09-28T05:13:57.531Z,13.03
2022-09-28T05:16:25.671Z,13.05
2022-09-28T05:18:56.151Z,13.06
2022-09-28T05:21:25.214Z,13.09
2022-09-28T05:23:52.205Z,13.09
2022-09-28T05:26:19.239Z,13.11
2022-09-28T05:28:45.869Z,13.14
2022-09-28T05:31:12.418Z,13.16
2022-09-28T05:33:38.999Z,13.17
2022-09-28T05:36:10.433Z,13.19
2022-09-28T05:38:37.384Z,13.18
2022-09-28T05:41:06.589Z,13.15
2022-09-28T05:43:33.626Z,13.21
2022-09-28T05:46:00.719Z,13.21
2022-09-28T05:48:28.307Z,13.24
2022-09-28T05:50:55.177Z,13.21
2022-09-28T05:53:21.867Z,13.29
2022-09-28T05:55:48.496Z,13.32
2022-09-28T05:58:15.252Z,13.32
2022-09-28T06:00:41.785Z,13.30
2022-09-28T06:03:11.801Z,13.38
2022-09-28T06:05:41.820Z,13.43
2022-09-28T06:08:12.772Z,13.47
2022-09-28T06:10:40.028Z,13.48
2022-09-28T06:13:07.529Z,13.52
2022-09-28T06:15:36.065Z,13.51
2022-09-28T06:18:05.246Z,13.61
2022-09-28T06:20:35.246Z,13.65
2022-09-28T06:23:02.113Z,13.66
2022-09-28T06:25:28.788Z,13.67
2022-09-28T06:28:00.563Z,13.67
2022-09-28T06:30:28.676Z,13.74
2022-09-28T06:32:57.066Z,13.71
2022-09-28T06:35:25.482Z,13.73
2022-09-28T06:37:52.646Z,13.73
2022-09-28T06:40:20.147Z,13.79
2022-09-28T06:43:10.107Z,13.82
2022-09-28T06:45:38.240Z,13.84
2022-09-28T06:48:05.578Z,13.90
2022-09-28T06:50:37.422Z,13.87
2022-09-28T06:53:06.638Z,13.93
2022-09-28T06:55:33.624Z,13.91
2022-09-28T06:58:03.214Z,13.94
2022-09-28T07:00:33.921Z,13.92
2022-09-28T07:03:02.671Z,13.95
2022-09-28T07:05:29.986Z,13.95
2022-09-28T07:07:57.451Z,13.91
2022-09-28T07:10:28.627Z,13.98
2022-09-28T07:12:56.987Z,13.98
2022-09-28T07:15:24.992Z,13.98
2022-09-28T07:18:03.054Z,13.93
2022-09-28T07:20:31.729Z,13.94
2022-09-28T07:23:11.546Z,14.00
2022-09-28T07:25:45.438Z,14.01
2022-09-28T07:28:12.407Z,14.02
2022-09-28T07:30:39.161Z,14.03
2022-09-28T07:33:07.932Z,14.03
2022-09-28T07:35:34.560Z,14.03
2022-09-28T07:38:04.551Z,14.01
2022-09-28T07:40:50.950Z,14.07
2022-09-28T07:43:20.685Z,14.09
2022-09-28T07:45:49.188Z,14.10
2022-09-28T07:48:17.130Z,14.11
2022-09-28T07:50:57.257Z,14.11
2022-09-28T07:53:25.502Z,14.10
2022-09-28T07:55:52.679Z,14.10
2022-09-28T07:58:20.310Z,14.18
2022-09-28T08:00:48.529Z,14.25
2022-09-28T08:03:16.944Z,14.26
2022-09-28T08:05:43.822Z,14.31
2022-09-28T08:08:10.745Z,14.33
2022-09-28T08:10:37.806Z,14.35
2022-09-28T08:13:06.477Z,14.36
2022-09-28T08:15:37.084Z,14.38
2022-09-28T08:18:07.011Z,14.40
2022-09-28T08:20:52.874Z,14.40
2022-09-28T08:23:20.337Z,14.45
2022-09-28T08:25:49.074Z,14.45
2022-09-28T08:28:17.977Z,14.45
2022-09-28T08:30:45.889Z,14.50
2022-09-28T08:33:23.597Z,14.53
2022-09-28T08:36:01.038Z,14.62
2022-09-28T08:38:29.535Z,14.69
2022-09-28T08:41:04.264Z,14.82
2022-09-28T08:43:55.099Z,14.93
2022-09-28T08:46:27.312Z,15.02
2022-09-28T08:49:24.090Z,15.13
2022-09-28T08:52:11.515Z,15.22
2022-09-28T08:55:02.462Z,15.28
2022-09-28T08:57:45.777Z,15.30
2022-09-28T09:00:36.526Z,15.31
2022-09-28T09:03:11.873Z,15.36
2022-09-28T09:06:05.971Z,15.38
2022-09-28T09:09:06.411Z,15.38
2022-09-28T09:11:56.245Z,15.39
2022-09-28T09:14:41.348Z,15.35
2022-09-28T09:17:18.960Z,15.32
2022-09-28T09:20:13.769Z,15.34
2022-09-28T09:22:43.646Z,15.31
2022-09-28T09:25:21.548Z,15.35
2022-09-28T09:27:57.024Z,15.39
2022-09-28T09:30:25.443Z,15.45
2022-09-28T09:33:32.780Z,15.52
2022-09-28T09:36:05.130Z,15.60
2022-09-28T09:38:43.726Z,15.64
2022-09-28T09:41:20.292Z,15.70
2022-09-28T09:43:56.083Z,15.79
2022-09-28T09:46:38.267Z,15.92
2022-09-28T09:49:23.176Z,16.04
2022-09-28T09:52:01.833Z,16.18
2022-09-28T09:54:47.822Z,16.34
2022-09-28T09:57:19.098Z,16.37
2022-09-28T09:59:47.407Z,16.44
2022-09-28T10:02:45.032Z,16.51
2022-09-28T10:05:11.549Z,16.50
2022-09-28T10:08:02.527Z,16.55
2022-09-28T10:10:34.128Z,16.56
2022-09-28T10:13:01.270Z,16.54
2022-09-28T10:15:31.491Z,16.52
2022-09-28T10:18:03.218Z,16.55
2022-09-28T10:20:34.222Z,16.56
2022-09-28T10:23:04.893Z,16.55
2022-09-28T10:25:36.425Z,16.53
2022-09-28T10:28:06.323Z,16.47
2022-09-28T10:30:44.455Z,16.41
2022-09-28T10:33:32.016Z,16.45
2022-09-28T10:36:01.133Z,16.49
2022-09-28T10:38:30.212Z,16.53
2022-09-28T10:41:01.949Z,16.60
2022-09-28T10:43:33.639Z,16.75
2022-09-28T10:46:05.575Z,16.77
2022-09-28T10:48:54.045Z,16.81
2022-09-28T10:51:20.957Z,16.80
2022-09-28T10:54:00.926Z,16.84
2022-09-28T10:56:30.145Z,16.90
2022-09-28T10:58:57.983Z,16.93
2022-09-28T11:01:33.413Z,16.96
2022-09-28T11:04:08.045Z,16.99
2022-09-28T11:06:40.907Z,16.93
2022-09-28T11:09:31.103Z,16.89
2022-09-28T11:11:59.877Z,16.85
2022-09-28T11:14:42.147Z,16.80
2022-09-28T11:17:27.669Z,16.77
2022-09-28T11:19:56.019Z,16.79
2022-09-28T11:22:29.942Z,16.78
2022-09-28T11:25:24.466Z,16.74
2022-09-28T11:27:50.985Z,16.71
2022-09-28T11:30:45.082Z,16.66
2022-09-28T11:33:30.026Z,16.58
2022-09-28T11:36:12.859Z,16.54
2022-09-28T11:39:08.971Z,16.48
2022-09-28T11:41:44.311Z,16.49
2022-09-28T11:44:29.440Z,16.46
2022-09-28T11:47:57.374Z,16.42
2022-09-28T11:50:35.697Z,16.39
2022-09-28T11:53:34.813Z,16.37
2022-09-28T11:56:27.053Z,16.28
2022-09-28T11:58:58.517Z,16.17
2022-09-28T12:01:51.472Z,16.14
2022-09-28T12:04:25.011Z,16.06
2022-09-28T12:07:43.793Z,16.00
2022-09-28T12:10:31.718Z,15.94
2022-09-28T12:13:08.227Z,15.88
2022-09-28T12:16:12.772Z,15.87
2022-09-28T12:18:41.736Z,15.85
2022-09-28T12:21:29.873Z,15.80
2022-09-28T12:24:10.405Z,15.73
2022-09-28T12:26:45.871Z,15.68
2022-09-28T12:29:18.486Z,15.67
2022-09-28T12:32:01.889Z,15.65
2022-09-28T12:34:28.617Z,15.60
2022-09-28T12:37:42.263Z,15.65
2022-09-28T12:40:36.250Z,15.65
2022-09-28T12:43:21.288Z,15.64
2022-09-28T12:46:17.676Z,15.63
2022-09-28T12:51:55.152Z,15.58
2022-09-28T12:54:40.215Z,15.57
2022-09-28T12:57:28.986Z,15.59
2022-09-28T13:00:17.662Z,15.57
2022-09-28T13:02:53.251Z,15.66
2022-09-28T13:05:28.523Z,15.72
2022-09-28T13:08:02.538Z,15.75
2022-09-28T13:11:10.095Z,15.81
2022-09-28T13:14:12.040Z,15.86
2022-09-28T13:16:47.612Z,15.81
2022-09-28T13:19:14.169Z,15.83
2022-09-28T13:21:50.349Z,15.86
2022-09-28T13:24:34.091Z,15.91
2022-09-28T13:27:13.246Z,15.99
2022-09-28T13:29:41.416Z,15.99
2022-09-28T13:32:09.804Z,16.02
2022-09-28T13:34:38.111Z,16.02
2022-09-28T13:37:25.659Z,15.99
2022-09-28T13:40:05.651Z,15.92
2022-09-28T13:42:44.467Z,15.86
2022-09-28T13:45:32.337Z,15.75
2022-09-28T13:48:11.817Z,15.68
2022-09-28T13:50:58.221Z,15.66
2022-09-28T13:53:36.901Z,15.65
2022-09-28T13:56:18.407Z,15.61
2022-09-28T13:58:51.462Z,15.57
2022-09-28T14:01:40.683Z,15.52
2022-09-28T14:04:19.012Z,15.51
2022-09-28T14:07:08.583Z,15.46
2022-09-28T14:09:47.116Z,15.39
2022-09-28T14:12:25.759Z,15.35
2022-09-28T14:14:52.816Z,15.26
2022-09-28T14:17:19.309Z,15.32
2022-09-28T14:19:52.668Z,15.30
2022-09-28T14:22:52.499Z,15.30
2022-09-28T14:25:31.810Z,15.29
2022-09-28T14:28:31.941Z,15.29
2022-09-28T14:31:08.775Z,15.29
2022-09-28T14:33:35.636Z,15.34
2022-09-28T14:36:06.398Z,15.37
2022-09-28T14:39:04.007Z,15.35
2022-09-28T14:41:37.856Z,15.30
2022-09-28T14:44:08.741Z,15.30
2022-09-28T14:46:43.408Z,15.29
2022-09-28T14:49:23.327Z,15.26
2022-09-28T14:51:56.061Z,15.25
2022-09-28T14:54:29.737Z,15.23
2022-09-28T14:57:15.330Z,15.19
2022-09-28T14:59:46.156Z,15.18
2022-09-28T15:02:13.492Z,15.18
2022-09-28T15:04:49.892Z,15.16
2022-09-28T15:07:40.632Z,15.09
2022-09-28T15:10:26.641Z,15.08
2022-09-28T15:12:56.026Z,15.09
2022-09-28T15:15:38.851Z,15.07
2022-09-28T15:18:16.623Z,15.05
2022-09-28T15:20:47.514Z,15.01
2022-09-28T15:23:26.707Z,14.94
2022-09-28T15:25:55.024Z,14.96
2022-09-28T15:28:23.857Z,14.95
2022-09-28T15:30:51.518Z,14.93
2022-09-28T15:33:46.125Z,14.91
2022-09-28T15:36:26.576Z,14.93
2022-09-28T15:39:31.646Z,14.90
2022-09-28T15:41:59.502Z,14.89
2022-09-28T15:44:32.957Z,14.87
2022-09-28T15:47:08.759Z,14.84
2022-09-28T15:49:41.292Z,14.82
2022-09-28T15:52:23.663Z,14.76
2022-09-28T15:54:50.831Z,14.72
2022-09-28T15:57:39.349Z,14.70
2022-09-28T16:00:21.839Z,14.73
2022-09-28T16:03:06.849Z,14.73
2022-09-28T16:05:46.660Z,14.70
2022-09-28T16:08:24.177Z,14.70
2022-09-28T16:10:59.652Z,14.69
2022-09-28T16:13:26.650Z,14.65
2022-09-28T16:16:00.251Z,14.56
2022-09-28T16:18:29.511Z,14.43
2022-09-28T16:21:21.456Z,14.33
2022-09-28T16:23:55.600Z,14.21
2022-09-28T16:26:33.641Z,14.11
2022-09-28T16:29:05.820Z,14.04
2022-09-28T16:31:34.411Z,13.92
2022-09-28T16:34:20.015Z,13.86
2022-09-28T16:36:49.463Z,13.79
2022-09-28T16:39:17.452Z,13.70
2022-09-28T16:41:51.679Z,13.64
2022-09-28T16:44:36.414Z,13.53
2022-09-28T16:47:03.025Z,13.43
2022-09-28T16:49:31.560Z,13.39
2022-09-28T16:51:58.083Z,13.33
2022-09-28T16:54:44.012Z,13.25
2022-09-28T16:57:14.811Z,13.21
2022-09-28T16:59:41.416Z,13.12
2022-09-28T17:05:13.443Z,12.99
2022-09-28T17:07:40.355Z,12.88
2022-09-28T17:10:45.100Z,12.85
2022-09-28T17:13:31.495Z,12.78
2022-09-28T17:15:58.582Z,12.74
2022-09-28T17:18:25.286Z,12.69
2022-09-28T17:20:55.597Z,12.60
2022-09-28T17:23:22.225Z,12.53
2022-09-28T17:25:49.013Z,12.42
2022-09-28T17:28:22.335Z,12.47
2022-09-28T17:30:49.031Z,12.38
2022-09-28T17:33:15.767Z,12.29
2022-09-28T17:35:45.302Z,12.29
2022-09-28T17:38:13.715Z,12.22
2022-09-28T17:40:40.930Z,12.16
2022-09-28T17:43:07.836Z,12.23
2022-09-28T17:45:39.504Z,12.18
2022-09-28T17:48:15.854Z,12.13
2022-09-28T17:50:46.470Z,12.12
2022-09-28T17:53:14.130Z,12.05
2022-09-28T17:55:43.056Z,12.06
2022-09-28T17:58:19.601Z,11.99
2022-09-28T18:00:49.919Z,11.97
2022-09-28T18:03:20.039Z,11.90
2022-09-28T18:05:49.792Z,11.90
2022-09-28T18:08:20.744Z,11.85
2022-09-28T18:10:47.595Z,11.88
2022-09-28T18:13:14.633Z,11.86
2022-09-28T18:15:41.658Z,11.82
2022-09-28T18:18:09.906Z,11.80
2022-09-28T18:20:37.612Z,11.81
2022-09-28T18:23:04.647Z,11.69
2022-09-28T18:25:31.744Z,11.69
2022-09-28T18:28:00.121Z,11.68
2022-09-28T18:30:28.243Z,11.60
2022-09-28T18:32:55.620Z,11.63
2022-09-28T18:35:23.428Z,11.63
2022-09-28T18:37:50.430Z,11.56
2022-09-28T18:40:17.841Z,11.49
2022-09-28T18:42:44.486Z,11.51
2022-09-28T18:45:11.731Z,11.46
2022-09-28T18:47:39.234Z,11.45
2022-09-28T18:50:06.461Z,11.43
2022-09-28T18:52:36.236Z,11.41
2022-09-28T18:55:02.975Z,11.32
2022-09-28T18:57:29.650Z,11.29
2022-09-28T18:59:56.310Z,11.30
2022-09-28T19:02:23.044Z,11.27
2022-09-28T19:04:49.803Z,11.24
2022-09-28T19:07:17.014Z,11.25
2022-09-28T19:09:44.190Z,11.17
2022-09-28T19:12:11.622Z,11.11
2022-09-28T19:14:39.297Z,11.08
2022-09-28T19:17:06.197Z,11.06
2022-09-28T19:19:33.016Z,11.04
2022-09-28T19:21:59.676Z,11.03
2022-09-28T19:24:26.477Z,11.01
2022-09-28T19:26:56.615Z,11.04
2022-09-28T19:29:23.323Z,10.99
2022-09-28T19:31:51.944Z,10.97
2022-09-28T19:34:18.817Z,10.91
2022-09-28T19:36:45.483Z,10.92
2022-09-28T19:39:15.315Z,10.88
2022-09-28T19:41:44.821Z,10.82
2022-09-28T19:44:24.773Z,10.75
2022-09-28T19:46:54.581Z,10.68
2022-09-28T19:49:22.675Z,10.67
2022-09-28T19:52:11.524Z,10.61
2022-09-28T19:54:38.078Z,10.51
2022-09-28T19:57:07.858Z,10.51
2022-09-28T19:59:36.503Z,10.46
2022-09-28T20:02:04.578Z,10.44
2022-09-28T20:04:31.249Z,10.39
2022-09-28T20:06:57.763Z,10.29
2022-09-28T20:09:25.970Z,10.17
2022-09-28T20:11:53.186Z,10.12
2022-09-28T20:14:21.473Z,10.09
2022-09-28T20:16:50.026Z,10.03
2022-09-28T20:19:19.146Z,9.98
2022-09-28T20:21:48.031Z,9.93
2022-09-28T20:24:16.542Z,9.89
2022-09-28T20:26:44.367Z,9.90
2022-09-28T20:29:11.343Z,9.87
2022-09-28T20:31:38.235Z,9.86
2022-09-28T20:34:05.661Z,9.83
2022-09-28T20:36:32.635Z,9.84
2022-09-28T20:39:03.227Z,9.84
2022-09-28T20:41:35.699Z,9.84
2022-09-28T20:44:05.587Z,9.81
2022-09-28T20:46:33.559Z,9.79
2022-09-28T20:49:00.394Z,9.73
2022-09-28T20:51:27.019Z,9.68
2022-09-28T20:53:55.455Z,9.66
2022-09-28T20:56:30.572Z,9.69
2022-09-28T20:58:57.351Z,9.64
2022-09-28T21:01:25.252Z,9.62
2022-09-28T21:03:54.479Z,9.59
2022-09-28T21:06:23.104Z,9.55
2022-09-28T21:08:50.188Z,9.53
2022-09-28T21:11:19.446Z,9.45
2022-09-28T21:13:46.435Z,9.41
2022-09-28T21:16:15.161Z,9.40
2022-09-28T21:18:42.061Z,9.38
2022-09-28T21:21:12.064Z,9.31
2022-09-28T21:23:38.853Z,9.27
2022-09-28T21:26:12.889Z,9.23
2022-09-28T21:28:40.127Z,9.20
2022-09-28T21:31:10.240Z,9.13
2022-09-28T21:33:37.220Z,9.12
2022-09-28T21:36:06.586Z,9.06
2022-09-28T21:38:34.711Z,9.03
2022-09-28T21:41:01.324Z,8.97
2022-09-28T21:43:30.244Z,8.95
2022-09-28T21:45:58.098Z,8.93
2022-09-28T21:48:27.169Z,8.90
2022-09-28T21:51:02.004Z,8.89
2022-09-28T21:53:31.464Z,8.78
2022-09-28T21:56:00.026Z,8.83
2022-09-28T21:58:29.284Z,8.74
2022-09-28T22:01:08.042Z,8.76
2022-09-28T22:03:36.555Z,8.73
2022-09-28T22:06:04.537Z,8.62
2022-09-28T22:08:31.629Z,8.67
2022-09-28T22:11:03.683Z,8.58
2022-09-28T22:13:32.564Z,8.62
2022-09-28T22:15:59.199Z,8.59
2022-09-28T22:18:27.801Z,8.55
2022-09-28T22:21:02.867Z,8.51
2022-09-28T22:23:30.416Z,8.50
2022-09-28T22:26:01.598Z,8.45
2022-09-28T22:28:28.729Z,8.45
2022-09-28T22:30:56.233Z,8.41
2022-09-28T22:33:23.350Z,8.37
2022-09-28T22:35:51.294Z,8.37
2022-09-28T22:38:23.107Z,8.36
2022-09-28T22:40:54.139Z,8.33
2022-09-28T22:43:22.629Z,8.31
2022-09-28T22:45:50.128Z,8.26
2022-09-28T22:48:16.833Z,8.29
2022-09-28T22:50:51.422Z,8.23
2022-09-28T22:53:18.635Z,8.18
2022-09-28T22:55:45.356Z,8.23
2022-09-28T22:58:12.364Z,8.14
2022-09-28T23:00:38.932Z,8.18
2022-09-28T23:03:05.560Z,8.17
2022-09-28T23:05:32.243Z,8.11
2022-09-28T23:07:58.808Z,8.14
2022-09-28T23:10:25.454Z,8.13
2022-09-28T23:12:54.987Z,8.12
2022-09-28T23:15:22.511Z,8.02
2022-09-28T23:17:55.198Z,8.04
2022-09-28T23:20:22.097Z,8.03
2022-09-28T23:22:49.503Z,8.03
2022-09-28T23:25:17.733Z,7.93
2022-09-28T23:27:48.485Z,7.90
2022-09-28T23:30:17.126Z,7.95
2022-09-28T23:32:44.070Z,7.93
2022-09-28T23:35:11.421Z,7.89
2022-09-28T23:37:38.829Z,7.87
2022-09-28T23:40:06.974Z,7.86
2022-09-28T23:42:35.441Z,7.83
2022-09-28T23:45:02.043Z,7.82
2022-09-28T23:47:28.709Z,7.77
2022-09-28T23:49:55.283Z,7.78
2022-09-28T23:52:21.807Z,7.75
2022-09-28T23:54:48.357Z,7.73
2022-09-28T23:57:14.895Z,7.71
2022-09-28T23:59:41.438Z,7.74
